Time;durP1;ratioP1;P1;durP2;ratioP2;P2;SDS_P1;SDS_P2;PMS_P1;PMS_P2;Temp;Humidity;BMP_temperature;BMP_pressure;BME280_temperature;BME280_humidity;BME280_pressure;Samples;Min_cycle;Max_cycle;Signal;HPM_P1;HPM_P2
2024/01/12 00:01:19;;;;;;;;;;;;;;;7.29;97.65;103345.69;7283516;19;19929;-68
2024/01/12 00:03:46;;;;;;;;;;;;;;;7.29;97.56;103351.78;7287528;19;20113;-67
2024/01/12 00:06:13;;;;;;;;;;;;;;;7.32;97.75;103350.78;7273040;19;20508;-67
2024/01/12 00:08:40;;;;;;;;;;;;;;;7.31;97.47;103352.56;7297041;19;19917;-67
2024/01/12 00:11:11;;;;;;;;;;;;;;;7.31;97.61;103352.56;7302798;19;20436;-69
2024/01/12 00:13:38;;;;;;;;;;;;;;;7.32;97.61;103349.03;7280685;19;20010;-68
2024/01/12 00:16:06;;;;;;;;;;;;;;;7.40;98.15;103342.59;7282660;19;19998;-67
2024/01/12 00:18:34;;;;;;;;;;;;;;;7.39;97.45;103348.75;7286134;19;20660;-67
2024/01/12 00:21:01;;;;;;;;;;;;;;;7.38;96.46;103353.13;7293366;19;19929;-66
2024/01/12 00:23:28;;;;;;;;;;;;;;;7.32;96.35;103351.66;7282923;19;19926;-67
2024/01/12 00:26:01;;;;;;;;;;;;;;;7.32;96.37;103343.78;7281166;19;19922;-67
2024/01/12 00:28:28;;;;;;;;;;;;;;;7.36;97.28;103341.06;7291951;19;19963;-65
2024/01/12 00:30:57;;;;;;;;;;;;;;;7.33;97.49;103336.78;7299392;19;20542;-66
2024/01/12 00:33:24;;;;;;;;;;;;;;;7.38;97.66;103326.94;7286272;19;19914;-66
2024/01/12 00:35:51;;;;;;;;;;;;;;;7.41;96.39;103336.44;7285729;19;21077;-67
2024/01/12 00:38:18;;;;;;;;;;;;;;;7.45;96.59;103333.63;7301699;19;19930;-66
2024/01/12 00:40:45;;;;;;;;;;;;;;;7.46;96.65;103327.47;7293931;19;19937;-66
2024/01/12 00:43:12;;;;;;;;;;;;;;;7.48;96.66;103330.00;7294123;19;19930;-67
2024/01/12 00:45:39;;;;;;;;;;;;;;;7.48;95.96;103330.84;7278458;19;20644;-68
2024/01/12 00:48:06;;;;;;;;;;;;;;;7.48;96.68;103327.38;7279311;19;19930;-67
2024/01/12 00:50:33;;;;;;;;;;;;;;;7.46;96.49;103326.63;7300047;19;20545;-67
2024/01/12 00:53:00;;;;;;;;;;;;;;;7.47;96.92;103328.28;7278583;19;20288;-68
2024/01/12 00:55:27;;;;;;;;;;;;;;;7.47;96.78;103326.53;7289230;19;20756;-68
2024/01/12 00:57:55;;;;;;;;;;;;;;;7.47;96.79;103320.44;7274560;19;20530;-67
2024/01/12 01:00:21;;;;;;;;;;;;;;;7.47;96.88;103323.91;7293208;19;19919;-67
2024/01/12 01:02:48;;;;;;;;;;;;;;;7.48;96.65;103328.22;7283782;19;20246;-67
2024/01/12 01:05:15;;;;;;;;;;;;;;;7.49;96.80;103337.78;7285164;19;20292;-68
2024/01/12 01:07:42;;;;;;;;;;;;;;;7.51;96.08;103328.09;7290600;19;19915;-67
2024/01/12 01:10:13;;;;;;;;;;;;;;;7.51;95.10;103335.09;7293163;19;19938;-67
2024/01/12 01:12:40;;;;;;;;;;;;;;;7.54;95.34;103329.72;7302274;19;19919;-69
2024/01/12 01:15:07;;;;;;;;;;;;;;;7.54;94.31;103327.94;7305101;19;19926;-66
2024/01/12 01:17:34;;;;;;;;;;;;;;;7.57;94.02;103330.41;7295099;19;19985;-66
2024/01/12 01:20:01;;;;;;;;;;;;;;;7.56;93.62;103333.13;7288979;19;19926;-66
2024/01/12 01:22:31;;;;;;;;;;;;;;;7.57;93.82;103337.41;7294316;19;20312;-67
2024/01/12 01:24:58;;;;;;;;;;;;;;;7.60;94.72;103335.53;7288490;19;19918;-67
2024/01/12 01:27:25;;;;;;;;;;;;;;;7.50;92.52;103331.63;7294219;19;20335;-67
2024/01/12 01:29:52;;;;;;;;;;;;;;;7.53;93.81;103323.63;7279603;19;22510;-66
2024/01/12 01:32:19;;;;;;;;;;;;;;;7.51;93.13;103330.72;7287756;19;19922;-66
2024/01/12 01:34:49;;;;;;;;;;;;;;;7.51;93.60;103319.41;7291777;19;20474;-67
2024/01/12 01:37:16;;;;;;;;;;;;;;;7.57;93.86;103322.56;7297771;19;19939;-66
2024/01/12 01:39:43;;;;;;;;;;;;;;;7.62;93.61;103317.94;7294373;19;20730;-67
2024/01/12 01:42:13;;;;;;;;;;;;;;;7.58;92.84;103320.78;7283458;19;19919;-67
2024/01/12 01:44:39;;;;;;;;;;;;;;;7.61;91.81;103328.53;7300448;19;19918;-67
2024/01/12 01:47:07;;;;;;;;;;;;;;;7.59;91.90;103312.88;7283202;19;19998;-67
2024/01/12 01:49:34;;;;;;;;;;;;;;;7.63;92.70;103314.41;7294637;19;20294;-66
2024/01/12 01:52:03;;;;;;;;;;;;;;;7.64;91.69;103317.88;7278009;19;20170;-66
2024/01/12 01:54:32;;;;;;;;;;;;;;;7.63;91.01;103321.41;7295512;19;20005;-66
2024/01/12 01:57:00;;;;;;;;;;;;;;;7.61;91.86;103307.56;7279560;19;20172;-66
2024/01/12 01:59:27;;;;;;;;;;;;;;;7.61;91.10;103315.44;7283424;19;20184;-67
2024/01/12 02:01:54;;;;;;;;;;;;;;;7.56;91.03;103322.66;7289336;19;21267;-67
2024/01/12 02:04:22;;;;;;;;;;;;;;;7.51;90.97;103317.63;7288432;19;20261;-66
2024/01/12 02:06:49;;;;;;;;;;;;;;;7.52;91.04;103321.91;7276879;19;20466;-66
2024/01/12 02:09:16;;;;;;;;;;;;;;;7.39;89.28;103312.09;7276172;19;20307;-66
2024/01/12 02:11:45;;;;;;;;;;;;;;;7.36;90.52;103314.88;7280535;19;19953;-67
2024/01/12 02:14:12;;;;;;;;;;;;;;;7.37;90.82;103301.69;7277119;19;20573;-67
2024/01/12 02:16:39;;;;;;;;;;;;;;;7.42;90.30;103298.84;7277712;19;20210;-67
2024/01/12 02:19:05;;;;;;;;;;;;;;;7.38;90.74;103300.75;7298918;19;19918;-68
2024/01/12 02:21:33;;;;;;;;;;;;;;;7.40;91.31;103306.78;7305246;19;20479;-68
2024/01/12 02:23:59;;;;;;;;;;;;;;;7.41;91.36;103300.63;7292991;19;19930;-68
2024/01/12 02:26:26;;;;;;;;;;;;;;;7.50;91.01;103301.97;7292977;19;19926;-67
2024/01/12 02:28:53;;;;;;;;;;;;;;;7.43;90.26;103309.25;7298408;19;19914;-68
2024/01/12 02:31:20;;;;;;;;;;;;;;;7.45;90.93;103307.44;7295046;19;19952;-69
2024/01/12 02:33:48;;;;;;;;;;;;;;;7.46;91.35;103310.91;7292644;19;19926;-68
2024/01/12 02:36:15;;;;;;;;;;;;;;;7.47;90.87;103310.81;7306399;19;20321;-66
2024/01/12 02:38:47;;;;;;;;;;;;;;;7.44;91.21;103302.25;7294831;19;20210;-68
2024/01/12 02:41:14;;;;;;;;;;;;;;;7.43;92.05;103295.31;7290733;19;20025;-67
2024/01/12 02:43:41;;;;;;;;;;;;;;;7.38;91.72;103295.53;7304534;19;20379;-69
2024/01/12 02:46:07;;;;;;;;;;;;;;;7.39;92.02;103299.00;7297503;19;20528;-67
2024/01/12 02:48:34;;;;;;;;;;;;;;;7.40;92.50;103296.31;7288483;19;19929;-67
2024/01/12 02:51:01;;;;;;;;;;;;;;;7.47;93.17;103292.47;7296281;19;19918;-67
2024/01/12 02:53:28;;;;;;;;;;;;;;;7.49;92.55;103300.28;7291412;19;19950;-68
2024/01/12 02:55:55;;;;;;;;;;;;;;;7.50;91.33;103299.34;7290335;19;20420;-66
2024/01/12 02:58:22;;;;;;;;;;;;;;;7.39;90.25;103296.38;7294022;19;19945;-66
2024/01/12 03:00:49;;;;;;;;;;;;;;;7.39;90.85;103299.84;7288228;19;19914;-67
2024/01/12 03:03:16;;;;;;;;;;;;;;;7.41;91.04;103297.16;7285123;19;19923;-66
2024/01/12 03:05:43;;;;;;;;;;;;;;;7.45;91.55;103298.72;7289899;19;19925;-67
2024/01/12 03:08:10;;;;;;;;;;;;;;;7.45;91.61;103298.72;7306180;19;20302;-67
2024/01/12 03:10:37;;;;;;;;;;;;;;;7.43;90.90;103283.06;7303550;19;20469;-67
2024/01/12 03:13:04;;;;;;;;;;;;;;;7.35;88.60;103300.91;7298226;19;21794;-68
2024/01/12 03:15:31;;;;;;;;;;;;;;;7.21;88.25;103290.22;7292711;19;21429;-69
2024/01/12 03:17:58;;;;;;;;;;;;;;;7.18;88.74;103283.34;7301937;19;20478;-67
2024/01/12 03:20:25;;;;;;;;;;;;;;;7.21;88.83;103285.81;7293806;19;20131;-67
2024/01/12 03:22:52;;;;;;;;;;;;;;;7.28;89.27;103286.41;7286837;19;20428;-67
2024/01/12 03:25:19;;;;;;;;;;;;;;;7.29;88.68;103290.72;7280691;19;19927;-66
2024/01/12 03:27:46;;;;;;;;;;;;;;;7.25;88.97;103284.78;7275049;19;20013;-68
2024/01/12 03:30:13;;;;;;;;;;;;;;;7.25;89.58;103289.16;7311642;19;19926;-68
2024/01/12 03:32:42;;;;;;;;;;;;;;;7.29;89.56;103293.34;7315736;19;19951;-66
2024/01/12 03:35:09;;;;;;;;;;;;;;;7.31;88.27;103288.91;7294531;19;19926;-67
2024/01/12 03:37:36;;;;;;;;;;;;;;;7.23;88.37;103291.00;7290830;19;20448;-66
2024/01/12 03:40:04;;;;;;;;;;;;;;;7.27;88.69;103282.06;7290851;19;19925;-66
2024/01/12 03:42:31;;;;;;;;;;;;;;;7.28;89.33;103283.78;7299569;19;19922;-67
2024/01/12 03:44:58;;;;;;;;;;;;;;;7.32;88.87;103286.19;7304828;19;19977;-66
2024/01/12 03:47:25;;;;;;;;;;;;;;;7.36;88.85;103286.06;7295211;19;19919;-67
2024/01/12 03:49:52;;;;;;;;;;;;;;;7.37;88.93;103275.50;7295797;19;20253;-67
2024/01/12 03:52:19;;;;;;;;;;;;;;;7.38;88.53;103281.59;7288790;19;19957;-67
2024/01/12 03:54:46;;;;;;;;;;;;;;;7.44;88.27;103268.22;7283126;19;19911;-67
2024/01/12 03:57:13;;;;;;;;;;;;;;;7.48;87.36;103269.75;7287114;19;19918;-70
2024/01/12 03:59:40;;;;;;;;;;;;;;;7.49;87.20;103259.22;7298053;19;19923;-67
2024/01/12 04:02:07;;;;;;;;;;;;;;;7.50;86.87;103263.53;7298687;19;19911;-67
2024/01/12 04:04:34;;;;;;;;;;;;;;;7.45;86.72;103278.63;7291665;19;19915;-68
2024/01/12 04:07:01;;;;;;;;;;;;;;;7.50;86.41;103273.16;7277989;19;20430;-67
2024/01/12 04:09:28;;;;;;;;;;;;;;;7.49;85.58;103268.84;7286656;19;20602;-67
2024/01/12 04:11:54;;;;;;;;;;;;;;;7.49;85.11;103274.94;7294256;19;19917;-67
2024/01/12 04:14:21;;;;;;;;;;;;;;;7.39;84.81;103278.91;7300003;19;20041;-66
2024/01/12 04:16:48;;;;;;;;;;;;;;;7.35;85.74;103276.50;7286402;19;19957;-67
2024/01/12 04:19:19;;;;;;;;;;;;;;;7.35;85.89;103273.88;7298438;19;20414;-67
2024/01/12 04:21:46;;;;;;;;;;;;;;;7.32;85.78;103282.72;7288084;19;19951;-66
2024/01/12 04:24:13;;;;;;;;;;;;;;;7.35;85.67;103281.72;7288806;19;19933;-68
2024/01/12 04:26:40;;;;;;;;;;;;;;;7.30;83.85;103287.19;7292895;19;20390;-66
2024/01/12 04:29:07;;;;;;;;;;;;;;;7.25;84.25;103289.16;7302872;19;19926;-66
2024/01/12 04:31:38;;;;;;;;;;;;;;;7.22;84.74;103290.13;7298975;19;19918;-67
2024/01/12 04:34:05;;;;;;;;;;;;;;;7.22;85.20;103281.44;7310586;19;19955;-68
2024/01/12 04:36:44;;;;;;;;;;;;;;;7.20;85.30;103283.28;7287500;19;19914;-67
2024/01/12 04:39:12;;;;;;;;;;;;;;;7.23;84.69;103288.38;7298660;19;20347;-68
2024/01/12 04:41:39;;;;;;;;;;;;;;;7.24;84.71;103284.84;7298113;19;20330;-71
2024/01/12 04:44:06;;;;;;;;;;;;;;;7.30;85.35;103284.56;7297504;19;20466;-66
2024/01/12 04:46:33;;;;;;;;;;;;;;;7.32;85.66;103274.84;7287363;19;20213;-69
2024/01/12 04:49:00;;;;;;;;;;;;;;;7.36;86.16;103279.06;7296610;19;19958;-67
2024/01/12 04:51:27;;;;;;;;;;;;;;;7.40;85.30;103272.75;7289388;19;19980;-67
2024/01/12 04:53:55;;;;;;;;;;;;;;;7.43;85.86;103272.59;7284501;19;20817;-67
2024/01/12 04:56:22;;;;;;;;;;;;;;;7.45;84.65;103272.53;7287475;19;19919;-66
2024/01/12 04:58:49;;;;;;;;;;;;;;;7.49;84.33;103271.47;7288650;19;20027;-69
2024/01/12 05:01:16;;;;;;;;;;;;;;;7.53;85.27;103279.09;7276571;19;20723;-66
2024/01/12 05:03:43;;;;;;;;;;;;;;;7.45;83.63;103267.28;7281304;19;20883;-67
2024/01/12 05:06:10;;;;;;;;;;;;;;;7.41;84.01;103266.59;7277779;19;20253;-66
2024/01/12 05:08:37;;;;;;;;;;;;;;;7.43;84.80;103263.88;7275520;19;20067;-67
2024/01/12 05:11:04;;;;;;;;;;;;;;;7.40;85.43;103259.66;7276740;19;21184;-67
2024/01/12 05:13:31;;;;;;;;;;;;;;;7.37;85.95;103256.31;7282834;19;19964;-67
2024/01/12 05:15:57;;;;;;;;;;;;;;;7.39;85.07;103263.19;7287036;19;20984;-67
2024/01/12 05:18:24;;;;;;;;;;;;;;;7.42;84.97;103262.19;7280429;19;19929;-67
2024/01/12 05:20:51;;;;;;;;;;;;;;;7.40;85.12;103264.88;7285632;19;20030;-68
2024/01/12 05:23:19;;;;;;;;;;;;;;;7.43;85.69;103258.66;7277501;19;19959;-67
2024/01/12 05:25:46;;;;;;;;;;;;;;;7.48;85.69;103249.66;7287397;19;19921;-67
2024/01/12 05:28:13;;;;;;;;;;;;;;;7.46;84.91;103240.19;7283929;19;20158;-67
2024/01/12 05:30:40;;;;;;;;;;;;;;;7.44;85.06;103252.50;7288986;19;19925;-67
2024/01/12 05:33:06;;;;;;;;;;;;;;;7.48;85.96;103254.88;7281322;19;19926;-67
2024/01/12 05:35:34;;;;;;;;;;;;;;;7.50;85.09;103260.06;7295285;19;22417;-67
2024/01/12 05:38:01;;;;;;;;;;;;;;;7.45;85.24;103251.56;7281608;19;20327;-67
2024/01/12 05:40:28;;;;;;;;;;;;;;;7.47;85.15;103242.72;7286068;19;19919;-67
2024/01/12 05:42:55;;;;;;;;;;;;;;;7.49;85.51;103242.66;7278617;19;20175;-67
2024/01/12 05:45:22;;;;;;;;;;;;;;;7.45;85.86;103241.97;7275714;19;20258;-69
2024/01/12 05:47:48;;;;;;;;;;;;;;;7.52;86.50;103235.47;7279829;19;20514;-68
2024/01/12 05:50:20;;;;;;;;;;;;;;;7.57;85.21;103238.72;7285205;19;19919;-67
2024/01/12 05:52:53;;;;;;;;;;;;;;;7.51;84.22;103238.19;7278065;19;21286;-66
2024/01/12 05:55:19;;;;;;;;;;;;;;;7.54;84.78;103233.66;7281622;19;20023;-66
2024/01/12 05:57:46;;;;;;;;;;;;;;;7.51;84.31;103228.56;7276972;19;20136;-67
2024/01/12 06:00:13;;;;;;;;;;;;;;;7.52;84.40;103239.88;7286177;19;19923;-67
2024/01/12 06:02:40;;;;;;;;;;;;;;;7.48;84.30;103227.84;7288453;19;19922;-66
2024/01/12 06:05:07;;;;;;;;;;;;;;;7.47;84.17;103224.38;7291719;19;19915;-66
2024/01/12 06:07:34;;;;;;;;;;;;;;;7.42;83.90;103226.38;7286539;19;20370;-68
2024/01/12 06:10:02;;;;;;;;;;;;;;;7.42;83.85;103236.84;7292740;19;19940;-67
2024/01/12 06:12:28;;;;;;;;;;;;;;;7.46;84.28;103248.03;7286681;19;19926;-67
2024/01/12 06:14:55;;;;;;;;;;;;;;;7.49;83.83;103246.13;7295651;19;19915;-66
2024/01/12 06:17:22;;;;;;;;;;;;;;;7.52;84.07;103237.25;7309986;19;20034;-68
2024/01/12 06:19:49;;;;;;;;;;;;;;;7.52;84.46;103235.47;7316070;19;19923;-66
2024/01/12 06:22:16;;;;;;;;;;;;;;;7.56;83.96;103242.28;7314151;19;19935;-68
2024/01/12 06:24:43;;;;;;;;;;;;;;;7.56;83.81;103239.69;7319857;19;20279;-68
2024/01/12 06:27:10;;;;;;;;;;;;;;;7.58;84.34;103243.06;7299439;19;19923;-67
2024/01/12 06:29:37;;;;;;;;;;;;;;;7.57;83.56;103237.88;7285008;19;20192;-68
2024/01/12 06:32:04;;;;;;;;;;;;;;;7.56;83.83;103236.22;7296395;19;19922;-70
2024/01/12 06:34:31;;;;;;;;;;;;;;;7.55;83.32;103239.75;7302493;19;20182;-67
2024/01/12 06:36:58;;;;;;;;;;;;;;;7.53;83.45;103241.56;7296307;19;19934;-68
2024/01/12 06:39:24;;;;;;;;;;;;;;;7.47;83.89;103234.84;7306794;19;19915;-69
2024/01/12 06:41:52;;;;;;;;;;;;;;;7.46;83.77;103235.81;7283193;19;22550;-68
2024/01/12 06:44:19;;;;;;;;;;;;;;;7.48;84.47;103246.19;7290062;19;19911;-69
2024/01/12 06:46:46;;;;;;;;;;;;;;;7.51;84.16;103230.34;7299527;19;19986;-68
2024/01/12 06:49:13;;;;;;;;;;;;;;;7.48;84.19;103238.31;7297204;19;21188;-67
2024/01/12 06:51:40;;;;;;;;;;;;;;;7.47;84.60;103234.84;7296431;19;20045;-68
2024/01/12 06:54:07;;;;;;;;;;;;;;;7.48;84.51;103230.47;7304196;19;19923;-67
2024/01/12 06:56:37;;;;;;;;;;;;;;;7.47;85.23;103232.22;7295353;19;19918;-67
2024/01/12 06:59:04;;;;;;;;;;;;;;;7.53;85.35;103229.31;7277724;19;20362;-68
2024/01/12 07:01:31;;;;;;;;;;;;;;;7.55;85.05;103232.72;7285273;19;20368;-67
2024/01/12 07:03:59;;;;;;;;;;;;;;;7.51;85.21;103236.44;7290476;19;20407;-66
2024/01/12 07:06:26;;;;;;;;;;;;;;;7.61;84.81;103239.47;7294660;19;19925;-67
2024/01/12 07:08:53;;;;;;;;;;;;;;;7.61;84.54;103245.53;7297352;19;19934;-66
2024/01/12 07:11:20;;;;;;;;;;;;;;;7.62;84.00;103241.13;7293898;19;20118;-67
2024/01/12 07:13:48;;;;;;;;;;;;;;;7.62;83.68;103234.13;7290051;19;19990;-68
2024/01/12 07:16:15;;;;;;;;;;;;;;;7.58;84.59;103239.59;7292390;19;21237;-66
2024/01/12 07:18:44;;;;;;;;;;;;;;;7.61;84.92;103242.94;7272775;19;21173;-68
2024/01/12 07:21:12;;;;;;;;;;;;;;;7.60;84.50;103235.97;7296199;19;20186;-66
2024/01/12 07:23:39;;;;;;;;;;;;;;;7.61;84.78;103239.47;7290841;19;22363;-68
2024/01/12 07:26:06;;;;;;;;;;;;;;;7.61;84.18;103247.31;7307355;19;19930;-67
2024/01/12 07:28:33;;;;;;;;;;;;;;;7.63;85.45;103240.22;7288969;19;20458;-67
2024/01/12 07:30:59;;;;;;;;;;;;;;;7.61;84.97;103240.31;7290388;19;19941;-68
2024/01/12 07:33:26;;;;;;;;;;;;;;;7.62;84.69;103248.97;7289090;19;19923;-69
2024/01/12 07:35:54;;;;;;;;;;;;;;;7.66;84.96;103242.69;7305134;19;19958;-67
2024/01/12 07:38:21;;;;;;;;;;;;;;;7.69;84.42;103240.78;7286348;19;19919;-68
2024/01/12 07:40:48;;;;;;;;;;;;;;;7.66;83.83;103242.69;7284996;19;19918;-67
2024/01/12 07:43:14;;;;;;;;;;;;;;;7.71;83.71;103246.81;7301363;19;19998;-67
2024/01/12 07:45:41;;;;;;;;;;;;;;;7.67;83.15;103245.22;7293274;19;22063;-68
2024/01/12 07:48:08;;;;;;;;;;;;;;;7.63;83.59;103245.44;7304428;19;20387;-68
2024/01/12 07:50:36;;;;;;;;;;;;;;;7.62;83.59;103249.84;7291857;19;20030;-67
2024/01/12 07:53:03;;;;;;;;;;;;;;;7.54;84.17;103238.88;7282663;19;20420;-67
2024/01/12 07:55:30;;;;;;;;;;;;;;;7.48;84.37;103254.03;7290062;19;20222;-68
2024/01/12 07:57:57;;;;;;;;;;;;;;;7.51;84.80;103248.69;7286169;19;20133;-68
2024/01/12 08:00:27;;;;;;;;;;;;;;;7.59;84.65;103246.53;7284549;19;19929;-68
2024/01/12 08:02:54;;;;;;;;;;;;;;;7.57;83.46;103238.72;7271659;19;20419;-68
2024/01/12 08:05:24;;;;;;;;;;;;;;;7.57;84.04;103243.97;7286897;19;19911;-68
2024/01/12 08:07:55;;;;;;;;;;;;;;;7.53;84.40;103241.56;7312863;19;19926;-67
2024/01/12 08:10:22;;;;;;;;;;;;;;;7.58;84.78;103244.81;7310346;19;19955;-67
2024/01/12 08:12:49;;;;;;;;;;;;;;;7.62;85.87;103251.59;7280401;19;20773;-68
2024/01/12 08:15:16;;;;;;;;;;;;;;;7.67;85.26;103254.84;7287627;19;19936;-68
2024/01/12 08:17:43;;;;;;;;;;;;;;;7.65;84.70;103254.09;7282235;19;20567;-67
2024/01/12 08:20:10;;;;;;;;;;;;;;;7.69;84.08;103255.63;7291278;19;20502;-69
2024/01/12 08:22:37;;;;;;;;;;;;;;;7.63;84.92;103243.69;7289296;19;19915;-68
2024/01/12 08:25:04;;;;;;;;;;;;;;;7.68;84.70;103252.16;7295721;19;19949;-66
2024/01/12 08:27:31;;;;;;;;;;;;;;;7.71;84.61;103244.19;7287306;19;19918;-67
2024/01/12 08:29:58;;;;;;;;;;;;;;;7.69;84.47;103247.78;7310225;19;19979;-67
2024/01/12 08:32:26;;;;;;;;;;;;;;;7.68;85.17;103243.47;7296057;19;19919;-67
2024/01/12 08:34:53;;;;;;;;;;;;;;;7.65;85.44;103241.00;7290111;19;20817;-68
2024/01/12 08:37:19;;;;;;;;;;;;;;;7.66;86.38;103240.94;7305695;19;19919;-67
2024/01/12 08:39:46;;;;;;;;;;;;;;;7.73;86.72;103233.59;7292194;19;21633;-68
2024/01/12 08:42:14;;;;;;;;;;;;;;;7.80;87.42;103242.88;7275378;19;19923;-67
2024/01/12 08:44:41;;;;;;;;;;;;;;;7.83;86.64;103245.34;7289463;19;19930;-67
2024/01/12 08:47:08;;;;;;;;;;;;;;;7.77;86.54;103242.19;7299099;19;19923;-68
2024/01/12 08:49:36;;;;;;;;;;;;;;;7.79;86.44;103242.94;7303369;19;20700;-67
2024/01/12 08:52:03;;;;;;;;;;;;;;;7.76;86.77;103243.94;7284449;19;19915;-68
2024/01/12 08:54:30;;;;;;;;;;;;;;;7.74;87.21;103251.88;7293623;19;20612;-67
2024/01/12 08:56:57;;;;;;;;;;;;;;;7.88;89.79;103261.69;7279227;19;19967;-69
2024/01/12 08:59:28;;;;;;;;;;;;;;;7.93;87.62;103253.59;7296166;19;19922;-67
2024/01/12 09:01:57;;;;;;;;;;;;;;;7.90;85.68;103249.34;7304153;19;19923;-67
2024/01/12 09:04:25;;;;;;;;;;;;;;;7.89;85.50;103247.66;7292294;19;19922;-67
2024/01/12 09:06:52;;;;;;;;;;;;;;;7.82;85.34;103243.66;7295931;19;19930;-70
2024/01/12 09:09:20;;;;;;;;;;;;;;;7.81;86.36;103246.34;7300172;19;20637;-68
2024/01/12 09:11:47;;;;;;;;;;;;;;;7.77;86.09;103253.53;7296108;19;20935;-71
2024/01/12 09:14:14;;;;;;;;;;;;;;;7.69;86.40;103242.53;7297629;19;19918;-69
2024/01/12 09:16:41;;;;;;;;;;;;;;;7.61;86.93;103252.56;7292494;19;19918;-70
2024/01/12 09:19:09;;;;;;;;;;;;;;;7.61;87.21;103257.78;7299952;19;19990;-67
2024/01/12 09:21:36;;;;;;;;;;;;;;;7.63;87.01;103263.78;7293834;19;19930;-68
2024/01/12 09:24:03;;;;;;;;;;;;;;;7.51;85.75;103261.78;7311532;19;19918;-68
2024/01/12 09:26:31;;;;;;;;;;;;;;;7.48;84.81;103262.75;7293322;19;19959;-69
2024/01/12 09:28:58;;;;;;;;;;;;;;;7.51;85.99;103256.53;7312685;19;21431;-68
2024/01/12 09:31:25;;;;;;;;;;;;;;;7.54;85.07;103253.75;7290322;19;19919;-68
2024/01/12 09:33:52;;;;;;;;;;;;;;;7.60;84.71;103259.56;7304360;19;20330;-68
2024/01/12 09:36:20;;;;;;;;;;;;;;;7.64;83.94;103252.41;7288472;19;20121;-67
2024/01/12 09:38:47;;;;;;;;;;;;;;;7.66;84.43;103253.19;7301816;19;19907;-67
2024/01/12 09:41:15;;;;;;;;;;;;;;;7.66;83.91;103251.41;7316342;19;19922;-68
2024/01/12 09:43:45;;;;;;;;;;;;;;;7.70;83.75;103265.19;7296935;19;19919;-68
2024/01/12 09:46:13;;;;;;;;;;;;;;;7.70;84.03;103270.44;7304200;19;19950;-69
2024/01/12 09:48:40;;;;;;;;;;;;;;;7.64;83.17;103268.13;7306881;19;19926;-68
2024/01/12 09:51:08;;;;;;;;;;;;;;;7.66;83.05;103263.66;7312345;19;20461;-68
2024/01/12 09:53:35;;;;;;;;;;;;;;;7.51;83.64;103269.63;7291787;19;20498;-69
2024/01/12 09:56:03;;;;;;;;;;;;;;;7.54;84.75;103265.09;7307142;19;19915;-69
2024/01/12 09:58:38;;;;;;;;;;;;;;;7.58;84.40;103273.63;7305819;19;20241;-69
2024/01/12 10:01:08;;;;;;;;;;;;;;;7.61;83.84;103249.94;7313648;19;20645;-68
2024/01/12 10:03:36;;;;;;;;;;;;;;;7.60;83.49;103256.94;7302706;19;19933;-68
2024/01/12 10:06:03;;;;;;;;;;;;;;;7.65;84.09;103256.72;7310161;19;19974;-68
2024/01/12 10:08:37;;;;;;;;;;;;;;;7.74;83.51;103251.03;7297000;19;19925;-68
2024/01/12 10:11:04;;;;;;;;;;;;;;;7.70;83.13;103254.72;7309502;19;19919;-67
2024/01/12 10:13:32;;;;;;;;;;;;;;;7.69;83.86;103253.88;7302935;19;19930;-68
2024/01/12 10:15:59;;;;;;;;;;;;;;;7.69;83.93;103255.63;7300280;19;19923;-68
2024/01/12 10:18:25;;;;;;;;;;;;;;;7.59;84.15;103257.00;7303319;19;19914;-70
2024/01/12 10:20:53;;;;;;;;;;;;;;;7.58;84.71;103266.63;7283215;19;20268;-71
2024/01/12 10:23:20;;;;;;;;;;;;;;;7.61;85.05;103258.66;7294152;19;19946;-68
2024/01/12 10:25:57;;;;;;;;;;;;;;;7.58;85.85;103258.78;7304757;19;19929;-69
2024/01/12 10:28:26;;;;;;;;;;;;;;;7.71;86.88;103259.06;7285335;19;20480;-70
2024/01/12 10:30:53;;;;;;;;;;;;;;;7.78;86.89;103256.97;7288896;19;20290;-71
2024/01/12 10:33:20;;;;;;;;;;;;;;;7.84;86.29;103261.91;7281738;19;19942;-67
2024/01/12 10:35:49;;;;;;;;;;;;;;;7.83;85.53;103268.91;7299214;19;19970;-67
2024/01/12 10:38:21;;;;;;;;;;;;;;;7.79;85.89;103270.00;7314019;19;19922;-68
2024/01/12 10:40:52;;;;;;;;;;;;;;;7.79;86.47;103269.16;7301344;19;20250;-68
2024/01/12 10:43:22;;;;;;;;;;;;;;;7.79;87.33;103269.16;7290886;19;19923;-68
2024/01/12 10:45:54;;;;;;;;;;;;;;;7.77;87.13;103261.38;7279418;19;19978;-67
2024/01/12 10:48:23;;;;;;;;;;;;;;;7.80;87.45;103258.59;7287138;19;20402;-68
2024/01/12 10:50:59;;;;;;;;;;;;;;;7.81;87.20;103260.31;7282474;19;19915;-69
2024/01/12 10:53:29;;;;;;;;;;;;;;;7.74;85.49;103251.88;7284551;19;20780;-69
2024/01/12 10:55:58;;;;;;;;;;;;;;;7.80;85.99;103249.88;7275568;19;19923;-69
2024/01/12 10:58:26;;;;;;;;;;;;;;;7.70;84.77;103247.72;7294158;19;22333;-68
2024/01/12 11:00:53;;;;;;;;;;;;;;;7.71;85.77;103245.94;7298053;19;19918;-68
2024/01/12 11:03:20;;;;;;;;;;;;;;;7.78;85.46;103239.47;7296607;19;20804;-68
2024/01/12 11:05:48;;;;;;;;;;;;;;;7.85;84.04;103233.00;7301017;19;20251;-69
2024/01/12 11:08:16;;;;;;;;;;;;;;;7.74;83.76;103237.94;7307158;19;19914;-69
2024/01/12 11:10:49;;;;;;;;;;;;;;;7.62;84.17;103241.13;7305029;19;20963;-67
2024/01/12 11:13:17;;;;;;;;;;;;;;;7.55;84.88;103230.13;7300633;19;19966;-68
2024/01/12 11:15:46;;;;;;;;;;;;;;;7.63;85.14;103220.09;7299390;19;20559;-67
2024/01/12 11:18:14;;;;;;;;;;;;;;;7.70;84.94;103220.66;7308442;19;19919;-67
2024/01/12 11:20:43;;;;;;;;;;;;;;;7.80;84.71;103211.44;7298762;19;19923;-67
2024/01/12 11:23:10;;;;;;;;;;;;;;;7.90;83.76;103220.53;7316980;19;19922;-67
2024/01/12 11:25:37;;;;;;;;;;;;;;;8.01;84.58;103217.38;7322713;19;20528;-67
2024/01/12 11:28:07;;;;;;;;;;;;;;;8.08;84.05;103219.59;7312437;19;20002;-67
2024/01/12 11:30:39;;;;;;;;;;;;;;;8.00;84.42;103226.16;7304943;19;19919;-68
2024/01/12 11:33:06;;;;;;;;;;;;;;;7.96;85.35;103214.13;7295713;19;19926;-68
2024/01/12 11:35:33;;;;;;;;;;;;;;;7.85;85.84;103214.66;7285829;19;19971;-69
2024/01/12 11:38:08;;;;;;;;;;;;;;;7.85;86.62;103205.97;7289434;19;20428;-69
2024/01/12 11:40:36;;;;;;;;;;;;;;;7.87;86.56;103206.75;7290143;19;19929;-69
2024/01/12 11:43:04;;;;;;;;;;;;;;;7.89;85.97;103205.72;7294187;19;19964;-69
2024/01/12 11:45:32;;;;;;;;;;;;;;;7.82;86.77;103208.75;7300774;19;20363;-69
2024/01/12 11:48:01;;;;;;;;;;;;;;;7.79;85.16;103203.63;7300059;19;19944;-67
2024/01/12 11:50:28;;;;;;;;;;;;;;;7.74;85.24;103190.75;7298051;19;20449;-67
2024/01/12 11:52:58;;;;;;;;;;;;;;;7.73;85.92;103197.78;7300352;19;20148;-67
2024/01/12 11:55:26;;;;;;;;;;;;;;;7.77;85.21;103195.03;7304690;19;20443;-70
2024/01/12 11:57:53;;;;;;;;;;;;;;;7.76;84.14;103196.78;7295456;19;19927;-69
2024/01/12 12:00:21;;;;;;;;;;;;;;;7.80;83.32;103197.47;7317077;19;19923;-69
2024/01/12 12:02:48;;;;;;;;;;;;;;;7.72;82.56;103187.34;7291845;19;20237;-67
2024/01/12 12:05:22;;;;;;;;;;;;;;;7.77;82.96;103177.53;7289408;19;21818;-67
2024/01/12 12:07:49;;;;;;;;;;;;;;;7.79;83.57;103178.28;7290855;19;19911;-67
2024/01/12 12:10:20;;;;;;;;;;;;;;;7.92;85.13;103173.28;7301252;19;19982;-68
2024/01/12 12:13:03;;;;;;;;;;;;;;;7.99;84.67;103170.25;7295865;19;19919;-69
2024/01/12 12:15:31;;;;;;;;;;;;;;;8.06;82.02;103161.16;7300196;19;19929;-70
2024/01/12 12:17:58;;;;;;;;;;;;;;;7.99;82.36;103165.03;7298756;19;19930;-68
2024/01/12 12:20:26;;;;;;;;;;;;;;;7.98;82.32;103165.09;7304503;19;20687;-68
2024/01/12 12:22:53;;;;;;;;;;;;;;;8.00;83.02;103158.00;7314972;19;19919;-70
2024/01/12 12:25:20;;;;;;;;;;;;;;;8.08;83.09;103168.94;7305598;19;19915;-68
2024/01/12 12:27:47;;;;;;;;;;;;;;;8.05;81.79;103156.84;7311866;19;20267;-68
2024/01/12 12:30:19;;;;;;;;;;;;;;;8.06;82.26;103162.94;7296261;19;19949;-68
2024/01/12 12:32:48;;;;;;;;;;;;;;;8.12;82.56;103154.78;7294860;19;19926;-68
2024/01/12 12:35:19;;;;;;;;;;;;;;;8.13;82.33;103154.66;7298757;19;19922;-69
2024/01/12 12:37:47;;;;;;;;;;;;;;;8.15;82.24;103144.97;7307194;19;19922;-68
2024/01/12 12:40:32;;;;;;;;;;;;;;;8.20;82.76;103136.84;7304174;19;19915;-69
2024/01/12 12:42:59;;;;;;;;;;;;;;;8.24;81.92;103130.50;7283145;19;19925;-68
2024/01/12 12:45:26;;;;;;;;;;;;;;;8.26;81.43;103128.66;7303088;19;19927;-69
2024/01/12 12:47:53;;;;;;;;;;;;;;;8.29;82.68;103125.88;7302326;19;20720;-69
2024/01/12 12:50:20;;;;;;;;;;;;;;;8.27;81.06;103119.88;7300759;19;20143;-67